Time;durP1;ratioP1;P1;durP2;ratioP2;P2;SDS_P1;SDS_P2;PMS_P1;PMS_P2;Temp;Humidity;BMP_temperature;BMP_pressure;BME280_temperature;BME280_humidity;BME280_pressure;Samples;Min_cycle;Max_cycle;Signal;HPM_P1;HPM_P2
2022/04/11 00:02:23;;;;;;;8.20;7.50;;;1.20;99.90;;;1.74;87.49;98342.56;5221721;28;20229;-53
2022/04/11 00:04:58;;;;;;;7.87;7.27;;;1.10;99.90;;;1.65;88.55;98340.75;5222588;28;20221;-52
2022/04/11 00:07:31;;;;;;;7.80;7.20;;;1.10;99.90;;;1.61;87.95;98334.53;5222129;28;20516;-52
2022/04/11 00:10:05;;;;;;;8.70;7.50;;;1.00;99.90;;;1.60;88.30;98332.75;5223377;28;20228;-52
2022/04/11 00:12:38;;;;;;;8.30;7.60;;;0.90;99.90;;;1.64;88.23;98332.31;5223587;28;20243;-51
2022/04/11 00:15:11;;;;;;;8.43;7.67;;;0.90;99.90;;;1.53;87.91;98331.25;5221205;28;20225;-52
2022/04/11 00:17:44;;;;;;;7.87;7.17;;;0.80;99.90;;;1.48;88.25;98329.03;5223650;28;20307;-52
2022/04/11 00:20:19;;;;;;;9.07;8.17;;;0.80;99.90;;;1.46;88.31;98327.97;5224973;28;20657;-53
2022/04/11 00:22:52;;;;;;;8.23;7.53;;;0.90;99.90;;;1.23;89.87;98324.06;5221192;28;21146;-54
2022/04/11 00:25:26;;;;;;;8.60;7.80;;;0.70;99.90;;;1.37;89.99;98322.03;5225007;28;20247;-52
2022/04/11 00:27:59;;;;;;;8.63;7.80;;;0.80;99.90;;;1.42;89.56;98330.94;5223562;28;20197;-51
2022/04/11 00:30:32;;;;;;;9.23;8.43;;;0.80;99.90;;;1.38;90.20;98326.34;5217982;28;20232;-52
2022/04/11 00:33:05;;;;;;;9.80;8.90;;;0.80;99.90;;;1.32;90.61;98327.50;5224458;28;20221;-52
2022/04/11 00:35:40;;;;;;;9.50;8.70;;;0.80;99.90;;;1.26;90.39;98329.41;5225337;28;20224;-54
2022/04/11 00:38:13;;;;;;;9.20;8.50;;;0.80;99.90;;;1.31;90.38;98328.22;5219331;28;20369;-55
2022/04/11 00:40:46;;;;;;;8.43;7.70;;;0.80;99.90;;;1.40;90.58;98332.41;5221767;28;20295;-54
2022/04/11 00:43:37;;;;;;;8.37;7.67;;;0.80;99.90;;;1.48;90.81;98326.50;5221977;28;20677;-55
2022/04/11 00:46:11;;;;;;;8.83;8.13;;;1.00;99.90;;;1.58;91.12;98324.16;5215352;28;20274;-52
2022/04/11 00:48:44;;;;;;;9.60;8.77;;;1.10;99.90;;;1.64;91.32;98317.22;5219306;28;20207;-55
2022/04/11 00:51:22;;;;;;;10.00;9.07;;;1.10;99.90;;;1.65;90.18;98316.47;5223561;28;20248;-55
2022/04/11 00:53:59;;;;;;;9.33;8.43;;;1.10;99.90;;;1.64;90.52;98313.81;5222564;28;20199;-51
2022/04/11 00:56:35;;;;;;;9.47;8.50;;;1.00;99.90;;;1.60;90.22;98306.66;5222169;28;20278;-52
2022/04/11 00:59:13;;;;;;;9.80;8.90;;;1.00;99.90;;;1.49;89.76;98308.16;5221527;28;20300;-52
2022/04/11 01:01:46;;;;;;;9.30;8.50;;;0.90;99.90;;;1.49;90.00;98303.13;5218161;28;20650;-51
2022/04/11 01:04:27;;;;;;;10.17;9.10;;;0.90;99.90;;;1.44;89.44;98301.75;5224062;28;20197;-55
2022/04/11 01:07:05;;;;;;;9.20;8.30;;;0.80;99.90;;;1.35;89.64;98304.25;5222591;28;20197;-51
2022/04/11 01:09:39;;;;;;;8.87;8.13;;;0.70;99.90;;;1.37;89.66;98301.88;5221441;28;20276;-54
2022/04/11 01:12:14;;;;;;;8.50;7.80;;;0.80;99.90;;;1.39;89.90;98300.41;5222966;28;20229;-53
2022/04/11 01:14:47;;;;;;;8.70;8.00;;;0.80;99.90;;;1.41;89.21;98301.47;5220790;28;20244;-52
2022/04/11 01:17:20;;;;;;;8.67;7.87;;;0.80;99.90;;;1.31;89.44;98298.00;5222689;28;20300;-52
2022/04/11 01:19:53;;;;;;;8.90;8.13;;;0.70;99.90;;;1.39;89.66;98296.25;5225052;28;21630;-52
2022/04/11 01:22:28;;;;;;;9.30;8.40;;;0.80;99.90;;;1.41;90.25;98291.38;5221921;28;20616;-55
2022/04/11 01:25:02;;;;;;;9.03;8.20;;;0.80;99.90;;;1.47;90.60;98294.50;5220569;28;20244;-54
2022/04/11 01:27:36;;;;;;;9.17;8.37;;;0.90;99.90;;;1.33;90.06;98286.47;5220243;28;20197;-51
2022/04/11 01:30:12;;;;;;;9.07;8.17;;;0.80;99.90;;;1.26;89.84;98293.25;5221009;28;20720;-52
2022/04/11 01:32:45;;;;;;;9.23;8.37;;;0.70;99.90;;;1.18;90.11;98290.00;5220572;28;20225;-54
2022/04/11 01:35:21;;;;;;;9.43;8.53;;;0.60;99.90;;;1.19;89.73;98296.78;5221143;28;20989;-52
2022/04/11 01:37:55;;;;;;;9.83;9.03;;;0.60;99.90;;;1.17;90.37;98293.22;5219520;28;20303;-52
2022/04/11 01:40:29;;;;;;;9.17;8.47;;;0.60;99.90;;;1.18;90.11;98292.50;5217009;28;20200;-52
2022/04/11 01:43:02;;;;;;;9.83;8.93;;;0.60;99.90;;;1.16;90.35;98295.59;5219370;28;20257;-51
2022/04/11 01:45:35;;;;;;;9.40;8.60;;;0.60;99.90;;;1.10;90.41;98296.78;5221008;28;20244;-54
2022/04/11 01:48:08;;;;;;;9.70;8.97;;;0.60;99.90;;;0.99;91.03;98304.88;5219542;28;20649;-52
2022/04/11 01:50:42;;;;;;;10.17;9.27;;;0.50;99.90;;;1.01;90.84;98302.53;5217730;28;20231;-52
2022/04/11 01:53:18;;;;;;;10.93;9.90;;;0.50;99.90;;;0.98;91.02;98300.59;5218701;28;20197;-53
2022/04/11 01:55:52;;;;;;;10.77;9.73;;;0.40;99.90;;;1.12;91.77;98300.34;5216222;28;20272;-52
2022/04/11 01:58:25;;;;;;;10.50;9.50;;;0.50;99.90;;;1.11;91.35;98302.69;5220926;28;20302;-52
2022/04/11 02:00:59;;;;;;;11.97;8.83;;;0.60;99.90;;;1.07;91.11;98290.56;5215782;28;20627;-53
2022/04/11 02:03:34;;;;;;;9.70;8.90;;;0.50;99.90;;;1.20;90.90;98298.56;5220862;28;20601;-51
2022/04/11 02:06:07;;;;;;;9.90;9.00;;;0.60;99.90;;;1.16;90.61;98301.53;5220787;28;20552;-51
2022/04/11 02:08:42;;;;;;;9.97;9.13;;;0.60;99.90;;;1.19;90.83;98301.84;5222335;28;20287;-51
2022/04/11 02:11:15;;;;;;;9.40;8.60;;;0.70;99.90;;;1.24;91.03;98297.28;5221279;28;20555;-52
2022/04/11 02:13:48;;;;;;;9.47;8.77;;;0.60;99.90;;;1.26;90.82;98289.13;5220457;28;20205;-50
2022/04/11 02:16:22;;;;;;;9.10;8.20;;;0.70;99.90;;;1.27;90.45;98284.97;5221182;28;20247;-50
2022/04/11 02:18:55;;;;;;;9.40;8.50;;;0.70;99.90;;;1.23;89.94;98281.28;5224446;28;20222;-52
2022/04/11 02:21:28;;;;;;;9.20;8.30;;;0.60;99.90;;;1.19;90.02;98288.38;5215979;28;20208;-51
2022/04/11 02:24:03;;;;;;;8.60;7.87;;;0.60;99.90;;;1.12;90.18;98279.31;5214664;28;20774;-50
2022/04/11 02:26:36;;;;;;;9.30;8.50;;;0.60;99.90;;;1.17;90.10;98273.09;5223361;28;20291;-53
2022/04/11 02:29:09;;;;;;;8.63;7.93;;;0.60;99.90;;;1.10;90.20;98275.75;5221146;28;20295;-53
2022/04/11 02:31:42;;;;;;;8.83;8.03;;;0.50;99.90;;;1.12;90.02;98279.31;5217211;28;20301;-55
2022/04/11 02:34:15;;;;;;;8.03;7.33;;;0.50;99.90;;;0.86;90.78;98280.13;5219911;28;20643;-52
2022/04/11 02:36:48;;;;;;;9.73;8.87;;;0.40;99.90;;;0.95;90.95;98271.72;5215711;28;20735;-52
2022/04/11 02:39:23;;;;;;;9.07;8.27;;;0.40;99.90;;;0.99;91.27;98266.25;5221573;28;20892;-55
2022/04/11 02:41:56;;;;;;;9.33;8.50;;;0.50;99.90;;;0.98;91.26;98259.44;5221866;28;20296;-51
2022/04/11 02:44:29;;;;;;;9.47;8.70;;;0.50;99.90;;;1.03;90.74;98269.22;5226163;28;20298;-51
2022/04/11 02:47:02;;;;;;;9.60;8.70;;;0.50;99.90;;;1.03;91.28;98254.13;5226357;28;20200;-52
2022/04/11 02:49:35;;;;;;;9.43;8.63;;;0.50;99.90;;;1.10;90.43;98259.03;5222441;28;20284;-52
2022/04/11 02:52:08;;;;;;;9.30;8.30;;;0.60;99.90;;;0.98;90.67;98256.91;5217120;28;20280;-51
2022/04/11 02:54:43;;;;;;;9.40;8.50;;;0.50;99.90;;;1.05;90.48;98246.72;5225645;28;20610;-51
2022/04/11 02:57:16;;;;;;;10.13;7.60;;;0.50;99.90;;;1.03;90.40;98243.13;5223413;28;20215;-51
2022/04/11 02:59:49;;;;;;;8.83;8.03;;;0.50;99.90;;;0.90;91.04;98246.06;5222139;28;20251;-51
2022/04/11 03:02:23;;;;;;;9.63;8.73;;;0.40;99.90;;;0.96;90.91;98228.19;5224036;28;20231;-54
2022/04/11 03:04:56;;;;;;;9.37;8.57;;;0.40;99.90;;;1.05;90.92;98216.50;5222612;28;20224;-51
2022/04/11 03:07:30;;;;;;;9.43;8.63;;;0.50;99.90;;;1.06;90.57;98216.69;5224649;28;20758;-52
2022/04/11 03:10:05;;;;;;;9.90;9.10;;;0.40;99.90;;;0.96;90.50;98208.94;5223165;28;20236;-54
2022/04/11 03:12:39;;;;;;;9.13;8.33;;;0.40;99.90;;;0.88;91.02;98207.28;5224388;28;20254;-51
2022/04/11 03:15:12;;;;;;;8.83;8.03;;;0.40;99.90;;;0.79;91.80;98207.25;5220717;28;20882;-51
2022/04/11 03:17:45;;;;;;;9.63;8.73;;;0.30;99.90;;;0.83;91.90;98204.34;5225709;28;20289;-52
2022/04/11 03:20:18;;;;;;;9.17;8.47;;;0.30;99.90;;;0.87;91.71;98191.31;5227497;28;20266;-51
2022/04/11 03:22:51;;;;;;;9.00;8.30;;;0.30;99.90;;;0.84;91.64;98192.63;5219095;28;20917;-52
2022/04/11 03:25:26;;;;;;;9.13;8.33;;;0.40;99.90;;;0.88;91.21;98194.72;5223872;28;20277;-51
2022/04/11 03:27:58;;;;;;;9.20;8.40;;;0.40;99.90;;;0.82;91.83;98181.53;5224583;28;20287;-51
2022/04/11 03:30:33;;;;;;;9.03;8.27;;;0.30;99.90;;;0.71;92.18;98180.44;5224233;28;20193;-51
2022/04/11 03:33:06;;;;;;;8.23;7.63;;;0.20;99.90;;;0.75;92.43;98175.00;5224187;28;20246;-53
2022/04/11 03:35:39;;;;;;;8.77;8.07;;;0.30;99.90;;;0.87;92.11;98180.34;5221836;28;20227;-51
2022/04/11 03:38:12;;;;;;;9.40;8.60;;;0.30;99.90;;;0.90;91.56;98176.50;5222071;28;20306;-51
2022/04/11 03:40:47;;;;;;;9.33;8.57;;;0.40;99.90;;;0.89;92.36;98174.75;5225527;28;20550;-51
2022/04/11 03:43:20;;;;;;;9.10;8.37;;;0.40;99.90;;;0.95;91.80;98173.56;5224037;28;20294;-51
2022/04/11 03:45:53;;;;;;;8.57;7.77;;;0.40;99.90;;;0.87;91.75;98176.22;5224299;28;20318;-51
2022/04/11 03:48:26;;;;;;;10.03;9.23;;;0.40;99.90;;;0.83;92.62;98175.75;5222837;28;20569;-50
2022/04/11 03:50:59;;;;;;;9.53;8.73;;;0.40;99.90;;;0.90;91.98;98175.63;5221191;28;20226;-51
2022/04/11 03:53:39;;;;;;;8.87;8.27;;;0.40;99.90;;;0.82;92.45;98173.97;5220373;28;20210;-52
2022/04/11 03:56:14;;;;;;;9.57;8.77;;;0.40;99.90;;;0.85;92.46;98169.25;5219328;28;20659;-51
2022/04/11 03:58:47;;;;;;;9.90;9.10;;;0.40;99.90;;;0.87;92.71;98171.19;5220527;28;20201;-52
2022/04/11 04:01:20;;;;;;;9.70;8.80;;;0.40;99.90;;;0.97;92.26;98167.03;5222906;28;20362;-53
2022/04/11 04:03:54;;;;;;;9.83;9.03;;;0.50;99.90;;;0.88;92.16;98162.88;5223692;28;20223;-51
2022/04/11 04:06:27;;;;;;;11.07;9.40;;;0.40;99.90;;;1.02;92.08;98155.81;5225599;28;20722;-52
2022/04/11 04:09:00;;;;;;;9.40;8.60;;;0.50;99.90;;;1.08;91.63;98156.41;5220792;28;20291;-54
2022/04/11 04:11:34;;;;;;;8.80;7.97;;;0.60;99.90;;;1.11;91.50;98157.59;5223917;28;20659;-55
2022/04/11 04:14:07;;;;;;;9.17;8.40;;;0.60;99.90;;;1.19;91.22;98157.47;5220821;28;20230;-51
2022/04/11 04:16:40;;;;;;;9.70;8.70;;;0.60;99.90;;;1.19;91.31;98160.88;5222973;28;20289;-51
2022/04/11 04:19:14;;;;;;;9.23;8.53;;;0.60;99.90;;;1.17;91.25;98151.38;5220695;28;20207;-52
2022/04/11 04:21:47;;;;;;;9.33;8.63;;;0.60;99.90;;;1.26;90.88;98163.25;5222336;28;20215;-52
2022/04/11 04:24:22;;;;;;;10.30;9.40;;;0.70;99.90;;;1.23;90.88;98162.97;5219605;28;20748;-55
2022/04/11 04:26:57;;;;;;;10.10;9.30;;;0.70;99.90;;;1.26;90.78;98164.84;5217576;28;20302;-50
2022/04/11 04:29:30;;;;;;;11.10;10.10;;;0.70;99.90;;;1.34;91.61;98162.38;5218365;28;20722;-53
2022/04/11 04:32:03;;;;;;;10.17;9.27;;;0.80;99.90;;;1.41;91.53;98157.94;5216871;28;20203;-56
2022/04/11 04:34:37;;;;;;;9.90;9.00;;;0.90;99.90;;;1.34;90.94;98151.38;5221820;28;20302;-55
2022/04/11 04:37:10;;;;;;;8.90;7.93;;;0.80;99.90;;;1.34;90.77;98149.78;5220259;28;20206;-53
2022/04/11 04:39:43;;;;;;;10.90;9.73;;;0.80;99.90;;;1.34;91.57;98152.31;5221345;28;20207;-54
2022/04/11 04:42:22;;;;;;;9.97;8.97;;;0.90;99.90;;;1.41;91.76;98147.84;5224973;28;20288;-54
2022/04/11 04:44:56;;;;;;;10.20;9.17;;;0.90;99.90;;;1.42;91.00;98144.59;5224360;28;20651;-57
2022/04/11 04:47:29;;;;;;;9.30;8.60;;;0.90;99.90;;;1.45;91.43;98145.75;5225540;28;20698;-55
2022/04/11 04:50:02;;;;;;;8.97;8.27;;;0.90;99.90;;;1.44;90.29;98149.03;5222026;28;20717;-55
2022/04/11 04:52:35;;;;;;;9.03;8.33;;;0.80;99.90;;;1.31;90.86;98149.47;5223886;28;20689;-54
2022/04/11 04:55:10;;;;;;;10.23;9.43;;;0.80;99.90;;;1.38;90.99;98147.56;5223801;28;20277;-54
2022/04/11 04:57:44;;;;;;;9.50;8.80;;;0.80;99.90;;;1.42;90.62;98142.94;5225117;28;20277;-58
2022/04/11 05:00:18;;;;;;;10.53;9.53;;;0.90;99.90;;;1.52;90.77;98149.78;5224580;28;20239;-57
2022/04/11 05:02:51;;;;;;;10.60;9.60;;;1.00;99.90;;;1.60;90.51;98153.91;5218891;28;20206;-54
2022/04/11 05:05:24;;;;;;;10.03;9.13;;;1.00;99.90;;;1.67;90.36;98153.75;5222918;28;20308;-52
2022/04/11 05:07:57;;;;;;;9.57;8.67;;;1.10;99.90;;;1.66;90.26;98151.06;5225472;28;20243;-55
2022/04/11 05:10:30;;;;;;;10.17;9.17;;;1.10;99.90;;;1.74;89.96;98155.22;5224763;28;20228;-55
2022/04/11 05:13:04;;;;;;;10.77;9.83;;;1.10;99.90;;;1.85;90.25;98148.69;5224725;28;20286;-56
2022/04/11 05:15:39;;;;;;;9.70;8.70;;;1.20;99.90;;;1.82;89.41;98148.41;5220666;28;20250;-55
2022/04/11 05:18:13;;;;;;;9.77;8.83;;;1.20;99.90;;;1.89;89.93;98145.72;5223422;28;20230;-54
2022/04/11 05:20:47;;;;;;;9.13;8.43;;;1.30;99.90;;;1.99;89.51;98148.38;5221817;28;20205;-53
2022/04/11 05:23:20;;;;;;;10.07;9.20;;;1.30;99.90;;;2.06;88.82;98145.69;5218535;28;20221;-54
2022/04/11 05:25:55;;;;;;;10.13;9.43;;;1.40;99.90;;;2.06;88.20;98145.69;5218740;28;20762;-55
2022/04/11 05:28:30;;;;;;;9.60;8.80;;;1.40;99.90;;;2.13;87.91;98148.03;5221807;28;20205;-53
2022/04/11 05:31:03;;;;;;;9.47;8.57;;;1.50;99.90;;;2.18;87.24;98146.84;5222453;28;20239;-54
2022/04/11 05:33:36;;;;;;;9.33;8.47;;;1.50;99.90;;;2.20;87.30;98155.44;5223982;28;20652;-54
2022/04/11 05:36:09;;;;;;;10.53;9.43;;;1.60;99.90;;;2.34;87.17;98153.28;5216488;28;20647;-55
2022/04/11 05:38:42;;;;;;;11.00;10.10;;;1.70;99.90;;;2.49;87.73;98159.78;5224637;28;20623;-54
2022/04/11 05:41:15;;;;;;;10.30;9.50;;;1.90;99.90;;;2.66;86.96;98158.78;5221647;28;20341;-57
2022/04/11 05:43:50;;;;;;;9.13;8.33;;;2.00;99.90;;;2.96;86.47;98153.16;5212940;28;20378;-51
2022/04/11 05:46:23;;;;;;;8.53;7.83;;;2.20;99.90;;;3.27;84.65;98155.91;5214500;28;20341;-52
2022/04/11 05:48:56;;;;;;;8.73;8.10;;;2.40;99.90;;;3.29;82.52;98156.91;5213709;28;20295;-55
2022/04/11 05:51:29;;;;;;;8.40;7.50;;;2.50;99.90;;;3.46;83.41;98150.84;5214774;28;20218;-54
2022/04/11 05:54:02;;;;;;;8.63;7.90;;;2.60;99.90;;;3.54;82.86;98158.34;5216700;28;20206;-54
2022/04/11 05:56:35;;;;;;;8.47;7.87;;;2.60;99.90;;;3.67;82.58;98155.28;5214108;28;20252;-54
2022/04/11 05:59:10;;;;;;;9.23;8.43;;;2.70;99.90;;;4.07;81.91;98149.53;5219424;28;20268;-54
2022/04/11 06:01:43;;;;;;;9.43;8.60;;;3.10;99.90;;;4.60;80.22;98156.53;5222762;28;20299;-54
2022/04/11 06:04:16;;;;;;;8.57;7.87;;;3.50;99.90;;;5.15;77.92;98145.91;5213572;28;20240;-53
2022/04/11 06:06:49;;;;;;;8.87;8.13;;;3.90;99.90;;;5.39;74.34;98142.00;5215132;28;20198;-53
2022/04/11 06:09:22;;;;;;;9.33;8.53;;;4.00;99.90;;;5.46;74.23;98138.31;5214295;28;20239;-52
2022/04/11 06:11:55;;;;;;;8.70;7.90;;;4.10;99.90;;;5.79;72.52;98140.13;5214442;28;20584;-56
2022/04/11 06:14:29;;;;;;;7.80;7.00;;;4.40;99.90;;;6.16;71.74;98133.81;5218713;28;20255;-54
2022/04/11 06:17:03;;;;;;;8.20;7.50;;;4.60;99.90;;;6.64;70.59;98133.31;5218555;28;20235;-54
2022/04/11 06:19:36;;;;;;;7.53;6.83;;;4.90;99.90;;;7.23;69.16;98129.28;5219531;28;20351;-57
2022/04/11 06:34:40;;;;;;;6.90;6.40;;;6.70;99.90;;;9.06;61.53;98126.03;5154870;28;20221;-53
2022/04/11 06:37:13;;;;;;;8.23;7.00;;;7.20;99.90;;;8.53;61.39;98130.13;5217947;28;20645;-51
2022/04/11 06:39:46;;;;;;;8.23;7.63;;;7.20;99.90;;;9.41;60.74;98133.47;5221628;28;20296;-56
2022/04/11 06:42:19;;;;;;;7.43;6.83;;;7.30;99.90;;;9.79;59.90;98132.53;5221374;28;20227;-51
2022/04/11 06:44:52;;;;;;;6.43;5.97;;;7.70;99.90;;;9.91;57.51;98133.31;5222451;28;20310;-51
2022/04/11 06:47:25;;;;;;;7.47;6.87;;;8.00;99.90;;;10.08;58.23;98135.28;5226433;28;20233;-52
2022/04/11 06:49:59;;;;;;;7.30;6.70;;;8.20;99.90;;;10.32;57.91;98130.84;5219229;28;20315;-51
2022/04/11 06:52:33;;;;;;;7.15;6.55;;;8.30;99.90;;;10.47;55.87;98130.03;5225524;28;20724;-54
2022/04/11 06:55:07;;;;;;;6.93;6.33;;;8.50;99.90;;;10.50;55.91;98130.22;5219223;28;20767;-51
2022/04/11 06:57:40;;;;;;;7.63;7.03;;;8.60;99.90;;;10.80;55.33;98137.19;5217523;28;20320;-55
2022/04/11 07:00:15;;;;;;;7.32;6.68;;;8.70;99.90;;;11.07;55.15;98126.84;5217700;28;20296;-52
2022/04/11 07:02:48;;;;;;;6.93;6.22;;;8.90;99.90;;;11.57;54.45;98126.38;5217185;28;20303;-52
2022/04/11 07:05:23;;;;;;;7.18;6.50;;;9.20;99.90;;;11.60;53.25;98128.22;5217135;28;20217;-52
2022/04/11 07:07:56;;;;;;;6.50;6.00;;;9.30;99.90;;;11.89;53.23;98127.34;5218930;28;20211;-55
2022/04/11 07:10:29;;;;;;;6.57;6.00;;;9.30;99.90;;;11.95;53.20;98120.88;5217539;28;20239;-55
2022/04/11 07:13:02;;;;;;;6.70;6.22;;;9.50;99.90;;;12.47;52.20;98125.41;5219679;28;20705;-54
2022/04/11 07:15:35;;;;;;;7.05;6.45;;;9.80;99.90;;;12.73;50.42;98113.97;5219801;28;20213;-54
2022/04/11 07:18:08;;;;;;;6.57;6.07;;;10.00;99.90;;;13.15;51.77;98111.00;5222134;28;20260;-55
2022/04/11 07:20:43;;;;;;;7.10;6.40;;;10.30;99.90;;;13.67;50.14;98113.63;5218224;28;20263;-56
2022/04/11 07:23:16;;;;;;;7.05;6.50;;;10.70;99.90;;;13.59;50.21;98105.56;5219498;28;20323;-55
2022/04/11 07:25:49;;;;;;;6.22;5.68;;;10.80;99.70;;;13.73;46.33;98112.25;5216121;28;20229;-55
2022/04/11 07:28:26;;;;;;;6.03;5.53;;;11.00;97.40;;;13.81;47.01;98109.16;5219143;28;20719;-54
2022/04/11 07:30:59;;;;;;;6.10;5.50;;;11.40;97.40;;;13.62;47.69;98115.06;5217873;28;20215;-53
2022/04/11 07:33:39;;;;;;;6.40;5.80;;;11.60;96.50;;;13.71;44.00;98120.69;5216547;28;20193;-56
2022/04/11 07:36:13;;;;;;;5.43;4.93;;;11.70;93.30;;;13.17;45.45;98107.72;5220568;28;20256;-55
2022/04/11 07:38:46;;;;;;;7.05;6.35;;;11.50;93.80;;;13.15;46.51;98111.00;5217491;28;20288;-56
2022/04/11 07:41:19;;;;;;;7.13;6.43;;;11.70;93.90;;;13.06;45.33;98107.16;5216810;28;20211;-56
2022/04/11 07:43:53;;;;;;;5.82;5.30;;;11.90;92.80;;;13.19;44.23;98107.75;5216919;28;20197;-54
2022/04/11 07:46:26;;;;;;;5.72;5.22;;;12.10;91.70;;;13.21;46.11;98108.72;5217048;28;20231;-54
2022/04/11 07:48:59;;;;;;;5.80;5.28;;;12.10;92.40;;;13.47;42.18;98108.38;5217629;28;20220;-53
2022/04/11 07:51:34;;;;;;;5.88;4.78;;;12.30;90.70;;;13.47;41.79;98105.81;5217038;28;20338;-53
2022/04/11 07:54:07;;;;;;;4.43;4.00;;;12.50;88.60;;;13.49;43.21;98104.22;5219002;28;20207;-56
2022/04/11 07:56:40;;;;;;;4.43;4.03;;;12.40;90.90;;;13.21;40.89;98103.59;5216449;28;20249;-54
2022/04/11 07:59:13;;;;;;;5.03;4.50;;;12.50;87.10;;;13.16;41.51;98102.47;5223549;28;20651;-54
2022/04/11 08:01:46;;;;;;;4.75;4.35;;;12.30;87.10;;;13.31;40.96;98098.16;5223459;28;20245;-53
2022/04/11 08:04:19;;;;;;;4.25;3.85;;;12.30;87.40;;;13.04;42.71;98097.59;5225296;28;20256;-55
2022/04/11 08:06:54;;;;;;;4.45;4.07;;;12.40;89.10;;;13.42;40.42;98101.25;5221005;28;20209;-52
2022/04/11 08:09:27;;;;;;;4.68;4.28;;;12.70;85.60;;;13.14;40.09;98098.97;5216886;28;20291;-52
2022/04/11 08:12:00;;;;;;;4.53;4.13;;;12.60;82.90;;;13.38;38.87;98089.97;5216933;28;20208;-51
2022/04/11 08:14:34;;;;;;;4.43;4.03;;;12.90;82.40;;;13.45;39.51;98102.31;5216776;28;20221;-53
2022/04/11 08:17:07;;;;;;;4.30;3.92;;;13.00;82.40;;;13.46;39.26;98100.63;5217999;28;20203;-56
2022/04/11 08:19:40;;;;;;;5.30;4.50;;;13.00;82.20;;;13.39;38.33;98091.75;5216991;28;20740;-56
2022/04/11 08:22:15;;;;;;;4.82;4.40;;;12.90;80.50;;;13.53;38.01;98089.81;5215723;28;20209;-53
2022/04/11 08:24:48;;;;;;;5.80;4.70;;;13.00;79.60;;;13.37;40.43;98113.88;5218173;28;20243;-53
2022/04/11 08:27:21;;;;;;;5.13;4.40;;;13.00;82.40;;;13.30;39.01;98101.53;5218239;28;20644;-53
2022/04/11 08:29:54;;;;;;;4.50;4.10;;;12.90;80.50;;;13.05;39.07;98107.97;5226188;28;20259;-52
2022/04/11 08:32:27;;;;;;;4.88;4.45;;;12.70;80.10;;;12.97;39.74;98104.13;5223852;28;20284;-54
2022/04/11 08:35:00;;;;;;;4.80;4.40;;;12.60;81.40;;;13.21;39.59;98103.59;5216307;28;20313;-54
2022/04/11 08:37:37;;;;;;;4.53;4.13;;;12.80;81.50;;;13.30;40.66;98101.53;5216427;28;20469;-55
2022/04/11 08:40:12;;;;;;;4.80;4.40;;;13.00;81.10;;;13.47;39.07;98100.69;5216205;28;20647;-56
2022/04/11 08:42:45;;;;;;;4.82;4.43;;;13.00;80.90;;;13.58;40.67;98098.66;5215338;28;20216;-56
2022/04/11 08:45:22;;;;;;;4.22;3.83;;;13.10;82.20;;;13.69;39.67;98096.59;5216631;28;20304;-54
2022/04/11 08:47:56;;;;;;;4.78;4.13;;;13.20;82.10;;;14.01;39.14;98097.25;5215362;28;20284;-56
2022/04/11 08:50:29;;;;;;;4.15;3.75;;;13.60;80.50;;;14.21;37.30;98096.50;5216519;28;20292;-56
2022/04/11 08:53:04;;;;;;;4.35;3.85;;;13.70;78.60;;;14.40;38.57;98101.69;5218475;28;20225;-56
2022/04/11 08:55:37;;;;;;;4.40;4.00;;;14.00;79.00;;;14.49;38.26;98090.06;5224777;28;20286;-56
2022/04/11 08:58:11;;;;;;;4.22;3.83;;;14.00;79.40;;;14.46;37.86;98089.94;5225057;28;20205;-56
2022/04/11 09:00:44;;;;;;;4.10;3.80;;;14.00;78.50;;;14.70;37.04;98085.91;5224930;28;20197;-55
2022/04/11 09:03:17;;;;;;;4.22;3.92;;;14.20;78.20;;;14.29;37.28;98089.16;5223199;28;20274;-54
2022/04/11 09:06:08;;;;;;;4.18;3.88;;;13.80;77.70;;;14.40;37.17;98088.84;5223800;28;20314;-52
2022/04/11 09:08:50;;;;;;;4.18;3.88;;;13.90;77.80;;;14.58;39.40;98093.09;5212644;28;20197;-53
2022/04/11 09:11:31;;;;;;;4.32;3.92;;;14.10;80.00;;;14.89;37.33;98097.03;5215723;28;20241;-52
2022/04/11 09:14:06;;;;;;;4.20;3.90;;;14.50;77.60;;;14.67;36.10;98088.34;5216989;28;20286;-53
2022/04/11 09:16:52;;;;;;;4.13;3.83;;;14.30;75.00;;;14.68;35.98;98096.94;5216724;28;20258;-55
2022/04/11 09:19:28;;;;;;;4.45;4.05;;;14.20;75.50;;;14.46;36.34;98083.09;5215515;28;20280;-56
2022/04/11 09:22:30;;;;;;;4.43;4.03;;;14.10;75.40;;;14.54;37.67;98078.34;5214731;28;20722;-52
2022/04/11 09:25:10;;;;;;;4.15;3.70;;;14.00;77.50;;;14.78;37.44;98074.25;5217082;28;20316;-52
2022/04/11 09:27:44;;;;;;;4.25;3.83;;;14.20;78.20;;;14.77;36.39;98072.50;5214978;28;20240;-54
2022/04/11 09:30:24;;;;;;;3.20;3.00;;;14.30;75.90;;;14.77;36.58;98079.34;5215492;28;20267;-53
2022/04/11 09:33:05;;;;;;;4.53;3.47;;;14.20;76.20;;;14.36;35.56;98061.19;5215450;28;20201;-54
2022/04/11 09:35:41;;;;;;;3.28;3.08;;;14.00;74.20;;;14.67;37.08;98066.88;5217372;28;21860;-53
2022/04/11 09:38:16;;;;;;;4.00;3.70;;;14.00;77.30;;;14.71;37.13;98064.53;5220813;28;20281;-55
2022/04/11 09:40:53;;;;;;;4.13;3.72;;;14.20;77.30;;;14.76;36.64;98065.59;5223100;28;20291;-53
2022/04/11 09:43:29;;;;;;;3.90;3.70;;;14.20;75.70;;;14.66;36.23;98063.44;5224262;28;20239;-52
2022/04/11 09:46:04;;;;;;;4.05;3.75;;;14.20;74.70;;;14.33;36.96;98057.63;5224416;28;20617;-55
2022/04/11 09:48:37;;;;;;;4.20;3.90;;;13.90;76.00;;;14.51;37.08;98067.88;5221987;28;20274;-54
2022/04/11 09:51:13;;;;;;;5.03;3.97;;;14.00;75.90;;;14.74;36.51;98061.22;5223626;28;20221;-52
2022/04/11 09:53:47;;;;;;;3.80;3.50;;;14.30;76.10;;;14.72;36.93;98068.84;5223272;28;20219;-53
2022/04/11 09:56:23;;;;;;;4.30;4.00;;;14.30;75.80;;;14.40;36.72;98065.69;5221462;28;20271;-55
2022/04/11 09:58:57;;;;;;;4.57;4.20;;;14.00;75.60;;;14.56;38.04;98056.97;5224147;28;20286;-51
2022/04/11 10:01:30;;;;;;;4.40;4.10;;;14.10;77.80;;;14.78;38.37;98040.81;5223037;28;20224;-53
2022/04/11 10:04:04;;;;;;;4.82;4.43;;;14.40;78.60;;;14.96;38.84;98043.28;5223169;28;20224;-51
2022/04/11 10:06:37;;;;;;;3.75;3.50;;;14.50;79.60;;;15.04;35.90;98046.19;5223985;28;20307;-55
2022/04/11 10:09:11;;;;;;;3.80;3.60;;;14.50;74.50;;;14.88;36.50;98034.38;5222870;28;20738;-52
2022/04/11 10:11:46;;;;;;;4.07;3.78;;;14.30;75.50;;;15.04;37.80;98029.06;5221879;28;20284;-53
2022/04/11 10:14:25;;;;;;;4.32;3.90;;;14.50;77.50;;;15.21;37.33;98029.75;5222779;28;20676;-56
2022/04/11 10:17:02;;;;;;;3.92;3.63;;;14.70;77.10;;;15.39;37.19;98029.63;5224479;28;20294;-52
2022/04/11 10:19:42;;;;;;;3.85;3.55;;;14.80;76.70;;;15.12;35.79;98013.94;5223221;28;20195;-52
2022/04/11 10:22:22;;;;;;;3.70;3.40;;;14.60;74.00;;;15.21;35.98;98019.47;5223110;28;20645;-51
2022/04/11 10:25:04;;;;;;;3.90;3.53;;;14.60;74.50;;;15.11;37.12;98022.50;5221791;28;20240;-52
2022/04/11 10:27:39;;;;;;;3.70;3.40;;;14.60;76.60;;;15.09;36.31;98018.97;5220985;28;20239;-52
2022/04/11 10:30:29;;;;;;;3.63;3.38;;;14.40;75.30;;;14.90;35.01;98014.72;5223732;28;20607;-52
2022/04/11 10:33:02;;;;;;;3.50;3.20;;;14.40;73.00;;;14.79;35.36;98019.44;5218928;28;20515;-52
2022/04/11 10:35:42;;;;;;;3.65;3.45;;;14.10;73.10;;;15.04;35.98;98011.03;5220967;28;20304;-54
2022/04/11 10:38:17;;;;;;;4.18;3.80;;;14.40;75.50;;;14.82;34.98;98013.50;5216695;28;20216;-53
2022/04/11 10:40:51;;;;;;;5.22;3.38;;;14.40;72.90;;;14.73;36.18;98013.13;5214090;28;20220;-53
2022/04/11 10:44:30;;;;;;;4.03;3.72;;;14.20;74.10;;;14.50;35.36;98001.78;5212915;28;20221;-52
2022/04/11 10:47:33;;;;;;;3.90;3.60;;;14.10;73.50;;;14.57;36.08;98002.19;5195205;28;20664;-53
2022/04/11 10:50:37;;;;;;;4.00;3.70;;;14.00;74.60;;;14.80;36.90;97999.72;5214637;28;20243;-54
2022/04/11 10:53:24;;;;;;;3.80;3.50;;;14.30;75.60;;;14.85;37.11;97993.97;5212629;28;20735;-54
2022/04/11 10:56:07;;;;;;;3.80;3.50;;;14.40;75.20;;;14.56;36.06;97996.94;5218339;28;20311;-53
2022/04/11 10:58:50;;;;;;;3.78;3.58;;;14.20;73.10;;;14.63;35.37;97994.72;5221126;28;20232;-52
2022/04/11 11:02:01;;;;;;;3.33;3.10;;;14.10;73.30;;;14.37;35.13;97992.69;5225873;28;20631;-53
2022/04/11 11:04:43;;;;;;;4.20;3.80;;;14.00;72.20;;;14.27;35.41;97981.09;5222071;28;20287;-55
2022/04/11 11:07:24;;;;;;;3.78;3.58;;;13.90;72.30;;;14.54;35.55;97966.03;5218361;28;20203;-55
2022/04/11 11:10:00;;;;;;;3.70;3.50;;;14.00;72.50;;;14.46;37.34;97976.78;5217271;28;21071;-52
2022/04/11 11:12:33;;;;;;;3.75;3.45;;;14.00;75.40;;;14.45;36.04;97970.75;5220136;28;20300;-55
2022/04/11 11:15:34;;;;;;;3.80;3.50;;;13.90;73.80;;;14.21;35.33;97965.38;5220794;28;20298;-57